createdAt,value
2023-04-24T00:01:38.122Z,11.18
2023-04-24T00:04:05.556Z,10.97
2023-04-24T00:06:35.476Z,11.12
2023-04-24T00:09:02.645Z,10.85
2023-04-24T00:11:29.964Z,10.74
2023-04-24T00:13:57.685Z,10.75
2023-04-24T00:16:24.966Z,10.81
2023-04-24T00:18:53.958Z,10.53
2023-04-24T00:21:21.929Z,10.56
2023-04-24T00:23:49.104Z,10.80
2023-04-24T00:26:16.270Z,10.63
2023-04-24T00:28:43.125Z,10.65
2023-04-24T00:31:10.063Z,10.79
2023-04-24T00:33:37.479Z,10.95
2023-04-24T00:36:04.611Z,10.88
2023-04-24T00:38:32.978Z,10.84
2023-04-24T00:41:02.309Z,10.91
2023-04-24T00:43:29.462Z,10.68
2023-04-24T00:45:56.663Z,10.58
2023-04-24T00:48:25.352Z,10.69
2023-04-24T00:50:52.144Z,10.48
2023-04-24T00:53:19.066Z,10.47
2023-04-24T00:55:46.518Z,10.46
2023-04-24T00:58:13.895Z,10.33
2023-04-24T01:00:40.966Z,10.17
2023-04-24T01:03:08.986Z,10.12
2023-04-24T01:05:36.119Z,10.09
2023-04-24T01:08:05.608Z,10.21
2023-04-24T01:10:35.588Z,9.97
2023-04-24T01:13:02.803Z,9.93
2023-04-24T01:15:30.270Z,9.82
2023-04-24T01:17:57.489Z,9.72
2023-04-24T01:20:27.227Z,9.85
2023-04-24T01:22:56.202Z,9.76
2023-04-24T01:25:27.279Z,9.78
2023-04-24T01:27:57.211Z,9.81
2023-04-24T01:30:24.423Z,9.89
2023-04-24T01:32:51.715Z,10.01
2023-04-24T01:35:18.852Z,10.10
2023-04-24T01:37:46.095Z,10.11
2023-04-24T01:40:13.633Z,10.17
2023-04-24T01:42:42.661Z,10.21
2023-04-24T01:45:12.313Z,10.26
2023-04-24T01:47:39.392Z,10.24
2023-04-24T01:50:07.403Z,10.38
2023-04-24T01:52:34.577Z,10.24
2023-04-24T01:55:02.745Z,10.29
2023-04-24T01:57:31.659Z,10.18
2023-04-24T01:59:58.981Z,10.19
2023-04-24T02:02:28.835Z,10.25
2023-04-24T02:04:55.854Z,10.23
2023-04-24T02:07:22.877Z,10.19
2023-04-24T02:09:50.054Z,10.25
2023-04-24T02:12:19.661Z,10.31
2023-04-24T02:14:46.573Z,10.15
2023-04-24T02:17:14.588Z,9.93
2023-04-24T02:19:41.862Z,9.76
2023-04-24T02:22:08.924Z,9.64
2023-04-24T02:24:35.859Z,9.52
2023-04-24T02:27:04.028Z,9.53
2023-04-24T02:29:31.748Z,9.38
2023-04-24T02:31:58.752Z,9.37
2023-04-24T02:34:25.844Z,9.35
2023-04-24T02:36:54.967Z,9.26
2023-04-24T02:39:22.368Z,9.19
2023-04-24T02:41:49.441Z,9.20
2023-04-24T02:44:16.280Z,9.15
2023-04-24T02:46:43.282Z,9.13
2023-04-24T02:49:13.190Z,9.06
2023-04-24T02:51:42.426Z,9.04
2023-04-24T02:54:11.230Z,8.93
2023-04-24T02:56:38.329Z,8.97
2023-04-24T02:59:05.326Z,8.81
2023-04-24T03:01:32.670Z,8.79
2023-04-24T03:03:59.873Z,8.73
2023-04-24T03:06:30.974Z,8.64
2023-04-24T03:08:58.519Z,8.61
2023-04-24T03:11:25.601Z,8.61
2023-04-24T03:13:52.654Z,8.53
2023-04-24T03:16:19.619Z,8.50
2023-04-24T03:18:46.865Z,8.54
2023-04-24T03:21:14.996Z,8.44
2023-04-24T03:23:41.895Z,8.43
2023-04-24T03:26:08.780Z,8.52
2023-04-24T03:28:35.749Z,8.41
2023-04-24T03:31:04.319Z,8.42
2023-04-24T03:33:31.442Z,8.43
2023-04-24T03:35:58.428Z,8.41
2023-04-24T03:38:25.368Z,8.41
2023-04-24T03:40:52.400Z,8.48
2023-04-24T03:43:19.325Z,8.48
2023-04-24T03:45:46.304Z,8.55
2023-04-24T03:48:13.280Z,8.50
2023-04-24T03:50:40.602Z,8.52
2023-04-24T03:53:07.533Z,8.52
2023-04-24T03:55:34.347Z,8.52
2023-04-24T03:58:01.139Z,8.46
2023-04-24T04:00:28.582Z,8.51
2023-04-24T04:02:55.586Z,8.46
2023-04-24T04:05:22.710Z,8.44
2023-04-24T04:07:49.626Z,8.43
2023-04-24T04:10:18.406Z,8.36
2023-04-24T04:12:45.369Z,8.38
2023-04-24T04:15:12.376Z,8.42
2023-04-24T04:17:39.548Z,8.36
2023-04-24T04:20:11.300Z,8.35
2023-04-24T04:22:38.970Z,8.36
2023-04-24T04:25:07.927Z,8.27
2023-04-24T04:27:35.843Z,8.16
2023-04-24T04:30:05.921Z,8.43
2023-04-24T04:32:34.570Z,8.38
2023-04-24T04:35:04.954Z,8.42
2023-04-24T04:37:32.606Z,8.55
2023-04-24T04:39:59.543Z,8.81
2023-04-24T04:42:28.179Z,9.02
2023-04-24T04:44:55.408Z,9.14
2023-04-24T04:47:26.071Z,9.21
2023-04-24T04:49:53.304Z,9.20
2023-04-24T04:52:20.808Z,9.33
2023-04-24T04:54:47.945Z,9.37
2023-04-24T04:57:14.899Z,9.47
2023-04-24T04:59:42.555Z,9.52
2023-04-24T05:02:10.253Z,9.60
2023-04-24T05:04:37.586Z,9.76
2023-04-24T05:07:05.829Z,9.84
2023-04-24T05:09:33.531Z,9.94
2023-04-24T05:12:02.612Z,10.17
2023-04-24T05:14:29.903Z,10.22
2023-04-24T05:16:57.268Z,10.33
2023-04-24T05:19:26.286Z,10.33
2023-04-24T05:21:53.305Z,10.39
2023-04-24T05:24:20.630Z,10.40
2023-04-24T05:26:48.294Z,10.49
2023-04-24T05:29:15.239Z,10.54
2023-04-24T05:31:42.183Z,10.72
2023-04-24T05:34:09.177Z,10.73
2023-04-24T05:36:36.084Z,10.75
2023-04-24T05:39:03.178Z,10.76
2023-04-24T05:41:30.133Z,10.83
2023-04-24T05:43:57.329Z,10.82
2023-04-24T05:46:24.574Z,11.05
2023-04-24T05:48:51.534Z,11.18
2023-04-24T05:51:18.645Z,11.06
2023-04-24T05:53:45.751Z,11.15
2023-04-24T05:56:13.289Z,11.36
2023-04-24T05:58:40.914Z,11.57
2023-04-24T06:01:07.892Z,11.91
2023-04-24T06:03:35.356Z,12.43
2023-04-24T06:06:02.470Z,12.85
2023-04-24T06:08:29.185Z,13.78
2023-04-24T06:10:56.205Z,14.22
2023-04-24T06:13:23.121Z,13.50
2023-04-24T06:15:49.990Z,13.23
2023-04-24T06:18:20.921Z,13.07
2023-04-24T06:20:48.250Z,13.27
2023-04-24T06:23:15.176Z,13.31
2023-04-24T06:25:42.313Z,13.80
2023-04-24T06:28:09.179Z,13.78
2023-04-24T06:30:36.176Z,13.72
2023-04-24T06:33:12.955Z,13.44
2023-04-24T06:35:46.169Z,13.25
2023-04-24T06:38:13.264Z,13.45
2023-04-24T06:40:40.789Z,13.64
2023-04-24T06:43:07.956Z,13.44
2023-04-24T06:45:35.079Z,13.10
2023-04-24T06:48:02.073Z,13.67
2023-04-24T06:50:29.015Z,13.73
2023-04-24T06:52:55.919Z,12.98
2023-04-24T06:55:22.853Z,13.18
2023-04-24T06:57:49.927Z,13.19
2023-04-24T07:00:19.362Z,13.14
2023-04-24T07:02:46.236Z,13.20
2023-04-24T07:05:14.023Z,12.94
2023-04-24T07:07:41.622Z,14.65
2023-04-24T07:10:09.915Z,14.79
2023-04-24T07:12:37.112Z,15.25
2023-04-24T07:15:04.572Z,15.84
2023-04-24T07:17:31.593Z,15.99
2023-04-24T07:19:59.111Z,15.74
2023-04-24T07:22:26.335Z,15.23
2023-04-24T07:24:53.159Z,15.36
2023-04-24T07:27:20.064Z,14.63
2023-04-24T07:29:47.135Z,14.32
2023-04-24T07:32:14.297Z,14.26
2023-04-24T07:34:41.690Z,14.83
2023-04-24T07:37:08.770Z,14.48
2023-04-24T07:39:35.958Z,14.65
2023-04-24T07:42:03.488Z,13.67
2023-04-24T07:44:30.543Z,13.76
2023-04-24T07:46:58.042Z,13.66
2023-04-24T07:49:29.099Z,14.05
2023-04-24T07:51:56.251Z,13.87
2023-04-24T07:54:23.118Z,13.96
2023-04-24T07:56:50.923Z,13.78
2023-04-24T07:59:17.718Z,14.19
2023-04-24T08:01:44.713Z,14.22
2023-04-24T08:04:11.955Z,14.55
2023-04-24T08:06:38.989Z,14.07
2023-04-24T08:09:06.275Z,13.94
2023-04-24T08:11:33.261Z,13.73
2023-04-24T08:14:00.443Z,13.41
2023-04-24T08:16:27.705Z,14.20
2023-04-24T08:18:54.702Z,14.02
2023-04-24T08:21:22.273Z,13.82
2023-04-24T08:23:49.132Z,14.20
2023-04-24T08:26:16.201Z,13.94
2023-04-24T08:28:43.866Z,14.36
2023-04-24T08:31:10.879Z,15.62
2023-04-24T08:33:37.862Z,16.95
2023-04-24T08:36:06.881Z,17.02
2023-04-24T08:38:35.094Z,16.15
2023-04-24T08:41:05.081Z,15.87
2023-04-24T08:43:34.444Z,14.95
2023-04-24T08:46:01.990Z,14.28
2023-04-24T08:48:31.564Z,13.83
2023-04-24T08:51:00.257Z,14.16
2023-04-24T08:53:27.767Z,14.31
2023-04-24T08:55:57.187Z,15.83
2023-04-24T08:58:27.786Z,16.20
2023-04-24T09:00:58.701Z,16.04
2023-04-24T09:03:28.452Z,14.86
2023-04-24T09:05:57.085Z,15.61
2023-04-24T09:08:26.275Z,17.36
2023-04-24T09:10:53.348Z,18.44
2023-04-24T09:13:22.007Z,19.08
2023-04-24T09:15:49.191Z,22.43
2023-04-24T09:18:16.203Z,21.72
2023-04-24T09:21:03.527Z,20.19
2023-04-24T09:23:32.063Z,18.37
2023-04-24T09:26:01.223Z,17.94
2023-04-24T09:28:33.579Z,17.09
2023-04-24T09:31:09.381Z,16.06
2023-04-24T09:33:36.864Z,15.17
2023-04-24T09:36:04.593Z,14.60
2023-04-24T09:38:39.514Z,14.11
2023-04-24T09:41:10.004Z,13.29
2023-04-24T09:43:37.048Z,13.17
2023-04-24T09:46:08.747Z,13.39
2023-04-24T09:48:38.163Z,13.75
2023-04-24T09:51:13.903Z,14.16
2023-04-24T09:53:41.498Z,14.39
2023-04-24T09:56:14.108Z,14.26
2023-04-24T09:58:41.264Z,13.92
2023-04-24T10:01:08.587Z,13.94
2023-04-24T10:03:36.079Z,13.60
2023-04-24T10:06:09.782Z,13.26
2023-04-24T10:08:38.789Z,13.79
2023-04-24T10:11:06.105Z,14.38
2023-04-24T10:13:36.940Z,14.37
2023-04-24T10:16:05.614Z,14.90
2023-04-24T10:18:33.852Z,14.48
2023-04-24T10:21:02.822Z,15.36
2023-04-24T10:23:31.498Z,16.05
2023-04-24T10:25:59.579Z,15.83
2023-04-24T10:28:27.970Z,15.02
2023-04-24T10:30:56.599Z,14.12
2023-04-24T10:33:24.863Z,14.07
2023-04-24T10:35:53.056Z,13.58
2023-04-24T10:38:31.529Z,13.71
2023-04-24T10:41:17.034Z,13.58
2023-04-24T10:43:44.738Z,13.34
2023-04-24T10:46:11.939Z,13.18
2023-04-24T10:48:44.987Z,13.23
2023-04-24T10:51:14.949Z,12.78
2023-04-24T10:53:41.936Z,12.78
2023-04-24T10:56:14.785Z,13.25
2023-04-24T10:58:53.561Z,13.48
2023-04-24T11:01:28.361Z,13.24
2023-04-24T11:04:00.101Z,13.36
2023-04-24T11:06:36.171Z,13.16
2023-04-24T11:09:08.625Z,12.88
2023-04-24T11:11:41.777Z,12.91
2023-04-24T11:14:09.681Z,13.05
2023-04-24T11:16:39.422Z,13.34
2023-04-24T11:19:06.549Z,13.48
2023-04-24T11:21:44.714Z,13.89
2023-04-24T11:24:37.138Z,13.76
2023-04-24T11:27:05.675Z,13.57
2023-04-24T11:29:48.264Z,13.68
2023-04-24T11:32:28.210Z,13.27
2023-04-24T11:35:01.696Z,12.91
2023-04-24T11:37:39.779Z,12.64
2023-04-24T11:40:17.536Z,12.68
2023-04-24T11:42:46.836Z,12.57
2023-04-24T11:45:16.740Z,12.69
2023-04-24T11:47:44.850Z,12.71
2023-04-24T11:50:18.430Z,12.72
2023-04-24T11:52:50.200Z,13.20
2023-04-24T11:55:20.082Z,13.71
2023-04-24T11:57:49.489Z,13.75
2023-04-24T12:00:18.520Z,13.56
2023-04-24T12:02:46.215Z,13.41
2023-04-24T12:05:24.885Z,13.49
2023-04-24T12:07:51.978Z,13.41
2023-04-24T12:10:27.242Z,13.93
2023-04-24T12:12:58.764Z,14.32
2023-04-24T12:15:26.566Z,14.14
2023-04-24T12:17:54.660Z,14.36
2023-04-24T12:20:32.677Z,13.89
2023-04-24T12:23:01.697Z,13.60
2023-04-24T12:25:31.312Z,13.50
2023-04-24T12:28:07.348Z,13.60
2023-04-24T12:30:51.541Z,13.31
2023-04-24T12:33:22.999Z,13.68
2023-04-24T12:35:55.114Z,13.26
2023-04-24T12:38:27.568Z,12.80
2023-04-24T12:41:10.594Z,13.21
2023-04-24T12:43:38.278Z,14.14
2023-04-24T12:46:06.216Z,14.88
2023-04-24T12:48:33.590Z,15.56
2023-04-24T12:51:04.019Z,15.47
2023-04-24T12:53:32.424Z,15.42
2023-04-24T12:55:59.675Z,15.94
2023-04-24T12:58:26.971Z,16.46
2023-04-24T13:00:54.426Z,15.50
2023-04-24T13:03:21.774Z,14.61
2023-04-24T13:05:48.825Z,13.44
2023-04-24T13:08:15.842Z,12.52
2023-04-24T13:10:42.972Z,11.97
2023-04-24T13:13:10.307Z,11.59
2023-04-24T13:15:37.564Z,11.39
2023-04-24T13:18:04.601Z,11.32
2023-04-24T13:20:32.580Z,11.42
2023-04-24T13:23:00.555Z,11.37
2023-04-24T13:25:28.159Z,11.49
2023-04-24T13:27:55.251Z,11.95
2023-04-24T13:30:22.474Z,12.00
2023-04-24T13:32:49.309Z,11.98
2023-04-24T13:35:16.382Z,12.43
2023-04-24T13:37:43.276Z,12.52
2023-04-24T13:40:11.116Z,12.77
2023-04-24T13:42:38.259Z,12.97
2023-04-24T13:45:21.285Z,13.06
2023-04-24T13:47:52.305Z,13.17
2023-04-24T13:50:19.587Z,13.02
2023-04-24T13:52:46.514Z,12.86
2023-04-24T13:55:13.648Z,13.02
2023-04-24T13:57:40.840Z,12.91
2023-04-24T14:00:11.948Z,12.51
2023-04-24T14:02:40.743Z,12.30
2023-04-24T14:05:07.944Z,12.08
2023-04-24T14:07:35.141Z,12.21
2023-04-24T14:10:02.044Z,12.22
2023-04-24T14:12:29.258Z,12.48
2023-04-24T14:14:56.167Z,12.54
2023-04-24T14:17:23.669Z,12.10
2023-04-24T14:19:51.647Z,12.34
2023-04-24T14:22:18.877Z,12.77
2023-04-24T14:24:45.893Z,13.00
2023-04-24T14:27:15.905Z,12.97
2023-04-24T14:29:42.822Z,13.25
2023-04-24T14:32:10.239Z,12.76
2023-04-24T14:34:37.269Z,12.49
2023-04-24T14:37:04.098Z,12.64
2023-04-24T14:39:31.197Z,12.52
2023-04-24T14:41:58.237Z,12.29
2023-04-24T14:44:25.337Z,12.18
2023-04-24T14:46:52.352Z,12.14
2023-04-24T14:49:19.353Z,12.37
2023-04-24T14:51:46.341Z,12.33
2023-04-24T14:54:13.713Z,12.29
2023-04-24T14:56:42.303Z,11.90
2023-04-24T14:59:09.551Z,11.40
2023-04-24T15:01:36.505Z,10.95
2023-04-24T15:04:03.655Z,10.78
2023-04-24T15:06:32.731Z,10.50
2023-04-24T15:08:59.869Z,10.16
2023-04-24T15:11:27.293Z,10.20
2023-04-24T15:13:54.349Z,10.12
2023-04-24T15:16:22.219Z,10.01
2023-04-24T15:18:53.514Z,9.79
2023-04-24T15:21:20.588Z,9.48
2023-04-24T15:23:48.999Z,9.46
2023-04-24T15:26:16.126Z,9.38
2023-04-24T15:28:44.123Z,9.27
2023-04-24T15:31:11.256Z,9.42
2023-04-24T15:33:38.073Z,9.43
2023-04-24T15:36:08.271Z,9.22
2023-04-24T15:38:35.359Z,9.20
2023-04-24T15:41:02.561Z,9.22
2023-04-24T15:43:32.216Z,8.99
2023-04-24T15:45:59.159Z,8.87
2023-04-24T15:48:26.123Z,8.70
2023-04-24T15:50:53.157Z,8.66
2023-04-24T15:53:22.692Z,8.53
2023-04-24T15:55:50.677Z,8.65
2023-04-24T15:58:18.455Z,8.50
2023-04-24T16:00:45.580Z,8.59
2023-04-24T16:03:13.376Z,8.60
2023-04-24T16:05:40.718Z,8.59
2023-04-24T16:08:07.665Z,8.61
2023-04-24T16:10:34.797Z,8.41
2023-04-24T16:13:04.692Z,8.41
2023-04-24T16:15:32.687Z,8.53
2023-04-24T16:18:02.245Z,8.32
2023-04-24T16:20:29.335Z,8.19
2023-04-24T16:22:56.419Z,8.19
2023-04-24T16:25:23.353Z,8.18
2023-04-24T16:27:52.819Z,7.88
2023-04-24T16:30:20.017Z,7.82
2023-04-24T16:32:47.327Z,8.15
2023-04-24T16:35:14.284Z,8.16
2023-04-24T16:37:41.496Z,8.33
2023-04-24T16:40:11.133Z,8.28
2023-04-24T16:42:38.602Z,8.44
2023-04-24T16:45:06.917Z,8.67
2023-04-24T16:47:33.835Z,8.69
2023-04-24T16:50:03.750Z,8.61
2023-04-24T16:52:30.586Z,8.55
2023-04-24T16:54:57.695Z,8.53
2023-04-24T16:57:24.761Z,8.52
2023-04-24T16:59:51.597Z,8.54
2023-04-24T17:02:18.766Z,8.43
2023-04-24T17:04:46.303Z,8.53
2023-04-24T17:07:16.555Z,8.13
2023-04-24T17:09:46.889Z,8.21
2023-04-24T17:12:13.850Z,8.12
2023-04-24T17:14:43.521Z,8.35
2023-04-24T17:17:10.621Z,8.38
2023-04-24T17:19:37.673Z,8.30
2023-04-24T17:22:06.085Z,8.36
2023-04-24T17:24:33.744Z,8.45
2023-04-24T17:27:04.865Z,8.34
2023-04-24T17:29:41.659Z,8.27
2023-04-24T17:32:08.877Z,8.22
2023-04-24T17:34:36.041Z,8.23
2023-04-24T17:37:04.384Z,7.97
2023-04-24T17:39:31.553Z,8.27
2023-04-24T17:41:58.705Z,8.25
2023-04-24T17:44:27.574Z,8.31
2023-04-24T17:46:55.133Z,8.27
2023-04-24T17:49:22.288Z,8.41
2023-04-24T17:51:52.168Z,8.23
2023-04-24T17:54:19.163Z,8.15
2023-04-24T17:56:46.651Z,8.23
2023-04-24T17:59:14.009Z,8.04
2023-04-24T18:01:41.003Z,7.82
2023-04-24T18:04:09.075Z,7.87
2023-04-24T18:06:36.404Z,8.00
2023-04-24T18:09:03.830Z,7.91
2023-04-24T18:11:30.681Z,8.10
2023-04-24T18:13:57.612Z,7.86
2023-04-24T18:16:25.976Z,8.02
2023-04-24T18:18:54.281Z,7.94
2023-04-24T18:21:21.172Z,7.91
2023-04-24T18:23:48.255Z,7.86
2023-04-24T18:26:17.324Z,7.74
2023-04-24T18:28:48.286Z,7.70
2023-04-24T18:31:15.633Z,7.73
2023-04-24T18:33:43.192Z,7.76
2023-04-24T18:36:10.157Z,7.94
2023-04-24T18:38:37.087Z,7.77
2023-04-24T18:41:04.300Z,7.89
2023-04-24T18:43:31.327Z,7.56
2023-04-24T18:45:58.244Z,7.65
2023-04-24T18:48:25.117Z,7.62
2023-04-24T18:50:53.035Z,7.58
2023-04-24T18:53:20.076Z,7.62
2023-04-24T18:55:46.947Z,7.73
2023-04-24T18:58:15.316Z,7.74
2023-04-24T19:00:42.326Z,7.73
2023-04-24T19:03:09.577Z,7.71
2023-04-24T19:05:36.756Z,7.77
2023-04-24T19:08:03.721Z,7.96
2023-04-24T19:10:31.342Z,7.94
2023-04-24T19:12:58.242Z,7.86
2023-04-24T19:15:25.842Z,7.64
2023-04-24T19:17:54.013Z,7.69
2023-04-24T19:20:24.300Z,7.57
2023-04-24T19:22:51.575Z,7.80
2023-04-24T19:25:18.574Z,7.79
2023-04-24T19:27:45.760Z,7.99
2023-04-24T19:30:16.190Z,7.72
2023-04-24T19:32:43.186Z,7.74
2023-04-24T19:35:10.163Z,7.76
2023-04-24T19:37:37.032Z,7.65
2023-04-24T19:40:04.542Z,7.57
2023-04-24T19:42:42.577Z,7.58
2023-04-24T19:45:14.844Z,7.57
2023-04-24T19:47:41.712Z,7.49
2023-04-24T19:50:09.459Z,7.69
2023-04-24T19:52:36.693Z,7.72
2023-04-24T19:55:04.119Z,7.70
2023-04-24T19:57:31.384Z,7.73
2023-04-24T19:59:58.349Z,7.92
2023-04-24T20:02:25.799Z,7.77
2023-04-24T20:04:52.922Z,7.74
2023-04-24T20:07:19.770Z,7.65
2023-04-24T20:09:47.327Z,7.72
2023-04-24T20:12:14.322Z,7.63
2023-04-24T20:14:41.143Z,7.68
2023-04-24T20:17:08.143Z,7.56
2023-04-24T20:19:35.413Z,7.46
2023-04-24T20:22:02.152Z,7.53
2023-04-24T20:24:29.516Z,7.69
2023-04-24T20:26:59.628Z,7.93
2023-04-24T20:29:26.580Z,7.78
2023-04-24T20:31:57.153Z,7.53
2023-04-24T20:34:24.297Z,7.53
2023-04-24T20:36:51.475Z,7.57
2023-04-24T20:39:18.753Z,7.71
2023-04-24T20:41:48.750Z,7.63
2023-04-24T20:44:15.963Z,7.74
2023-04-24T20:46:43.074Z,7.69
2023-04-24T20:49:10.082Z,7.84
2023-04-24T20:51:37.191Z,7.85
2023-04-24T20:54:04.412Z,7.94
2023-04-24T20:56:31.537Z,7.86
2023-04-24T20:58:58.473Z,7.83
2023-04-24T21:01:25.794Z,7.88
2023-04-24T21:03:53.326Z,7.61
2023-04-24T21:06:20.579Z,7.67
2023-04-24T21:08:47.793Z,7.74
2023-04-24T21:11:14.789Z,7.78
2023-04-24T21:13:41.791Z,7.95
2023-04-24T21:16:08.973Z,7.95
2023-04-24T21:18:43.783Z,8.01
2023-04-24T21:21:10.700Z,7.93
2023-04-24T21:23:40.236Z,8.03
2023-04-24T21:26:07.647Z,7.97
2023-04-24T21:28:34.751Z,7.96
2023-04-24T21:31:01.941Z,7.81
2023-04-24T21:33:29.092Z,7.82
2023-04-24T21:35:58.561Z,7.93
2023-04-24T21:38:25.668Z,7.93
2023-04-24T21:40:52.962Z,7.90
2023-04-24T21:43:25.372Z,7.94
2023-04-24T21:45:55.140Z,8.08
2023-04-24T21:48:22.099Z,7.92
2023-04-24T21:50:49.474Z,7.88
2023-04-24T21:53:16.456Z,7.90
2023-04-24T21:55:44.422Z,7.85
2023-04-24T21:58:11.501Z,7.73
2023-04-24T22:00:38.563Z,7.66
2023-04-24T22:03:05.739Z,7.84
2023-04-24T22:05:32.989Z,7.84
2023-04-24T22:08:00.029Z,7.89
2023-04-24T22:10:27.414Z,7.84
2023-04-24T22:12:54.732Z,7.81
2023-04-24T22:15:24.305Z,7.88
2023-04-24T22:17:52.791Z,7.84
2023-04-24T22:20:20.411Z,7.75
2023-04-24T22:22:50.567Z,7.87
2023-04-24T22:25:18.510Z,7.96
2023-04-24T22:27:45.604Z,7.90
2023-04-24T22:30:13.076Z,8.01
2023-04-24T22:32:40.016Z,7.91
2023-04-24T22:35:08.166Z,7.89
2023-04-24T22:37:35.241Z,7.98
2023-04-24T22:40:02.437Z,7.84
2023-04-24T22:42:32.074Z,7.84
2023-04-24T22:44:59.088Z,7.73
2023-04-24T22:47:26.219Z,7.85
2023-04-24T22:49:56.880Z,7.78
2023-04-24T22:52:25.692Z,7.66
2023-04-24T22:54:52.579Z,7.84
2023-04-24T22:57:19.505Z,7.99
2023-04-24T22:59:46.350Z,8.02
2023-04-24T23:02:16.992Z,8.12
2023-04-24T23:04:44.217Z,8.03
2023-04-24T23:07:11.443Z,8.00
2023-04-24T23:09:38.355Z,7.83
2023-04-24T23:12:08.275Z,8.15
2023-04-24T23:14:35.399Z,8.10
2023-04-24T23:17:02.534Z,8.25
2023-04-24T23:19:29.497Z,8.19
2023-04-24T23:21:56.518Z,8.15
2023-04-24T23:24:23.276Z,7.94
2023-04-24T23:26:50.263Z,7.65
2023-04-24T23:29:17.171Z,7.40
2023-04-24T23:31:44.201Z,7.39
2023-04-24T23:34:11.165Z,7.40
2023-04-24T23:36:38.008Z,7.52
2023-04-24T23:39:05.528Z,7.53
2023-04-24T23:41:32.352Z,7.51
2023-04-24T23:43:59.129Z,7.23
2023-04-24T23:46:26.936Z,7.33
2023-04-24T23:48:53.834Z,7.40
2023-04-24T23:51:20.932Z,7.32
2023-04-24T23:53:47.862Z,7.24
2023-04-24T23:56:15.104Z,7.35
2023-04-24T23:58:41.938Z,7.51
